Hauptseite
METAR-TAF:

METAR-TAF

Flughäfen :

Oswego County Airport

Fulton, New York, Vereinigte Staaten

Breite: 43-21-03N, Länge: 076-23-17W, Höhe: 145 m

Beobachtung

Neuester Wetterbericht von vor 23 Minuten, um 16:54 UTC
Wind 9 kt aus Nordwest
Temperatur 21°C
Luftfeuchtigkeit 73%
Luftdruck 1003 hPa
Sichtweite: 16.1 km
Aufgelockert bewölkt in der Höhe von 1500 ft
Durchbrochene Bewölkung in der Höhe von 11000 ft

METAR: KFZY 031654Z AUTO 31009KT 10SM SCT015 BKN110 21/16 A2962 RMK AO2 SLP028 T02060161

Zeit: 13:17 (17:17 UTC)


TAF: fehlend

Wetterbeobachtungen und Prognosen von mehr als 4000 Flughäfen (METAR und TAF Bericht).

Die verfügbaren Stationen werden durch gelbe und rote Markierungen auf der Karte dargestellt.

Führen Sie die Maus auf sie, um den Namen der Station zu sehen.

Darauf klicken, um die Beobachtung von Wetterbeobachtungen und Prognosen zu sehen.

Um die Karte zu ändern : klicken Sie auf den grünen Tasten mit einem schwarzen Kreuz Zum Vergrößern, auf den grünen Button mit einem Gedankenstrich zu verkleinern, oder auf die grünen Pfeile für benachbarte Karten.


METAR-TAF: